Lebanon, CT (06249)

4:44 PM EST on November 23, 2014 (GMT -0500)
Woodside Road | Change Station
CLOSE
Current Station
Personal Weather Station
Location: Amston, CT
Elevation: 610 ft
Nearby Weather Stations

Elev 610 ft 41.62 °N, 72.33 °W | Updated 7 seconds ago

Clear
Clear
48.7 °F
Feels Like 49 °F
N
0.0
Wind Variable Wind from South
Gusts 0.0 mph

Today
High -- | Low -- °F
--% Chance of Precip.
Yesterday
High -- | Low -- °F
Precip. -- in
6:47 AM 4:23 PM
New Moon, 2% visible
Pressure 30.13 in
Visibility 10.0 miles
Clouds Clear
Windchill 49 °F
Dew Point 28 °F
Humidity 44%
Rainfall 0.02 in
Snow Depth Not available.
UV 0 out of 12
Pollen .10 out of 12
Air Quality Not available.
Flu Activity Not available.
METAR KIJD 232052Z AUTO 17008KT 10SM CLR 14/00 A3012 RMK AO2 SLP201 T01440000 53001

More Conditions Fewer Conditions

Pressure 30.13 in
Visibility 10.0 miles
Clouds Clear
Windchill 49 °F
Dew Point 28 °F
Humidity 44%
Rainfall 0.02 in
Snow Depth Not available.
UV 0 out of 12
Pollen .10 out of 12
Air Quality Not available.
Flu Activity Not available.
METAR KIJD 232052Z AUTO 17008KT 10SM CLR 14/00 A3012 RMK AO2 SLP201 T01440000 53001

More Conditions Fewer Conditions

10-Day Weather Forecast

Almanac

Astronomy

Nov. 23, 2014 Rise Set
Actual Time
Civil Twilight
Nautical Twilight
Astronomical Twilight
Moon
Length of Visible Light
Length of Day
Tomorrow will be .
, % of the Moon is Illuminated

Today's Extremes

State Highs State Lows

Community

WunderPhotos

Upload Photos

1,773,183 photos uploaded!

WunderBlogs® & News

Nearby

Air Quality

  Air Quality AQ Index Pollutant
Not available.

Snow Depth

Station Depth Elevation

Earthquake Activity

City Distance Mag. Time & Date
Minimum magnitude displayed is 2.5.

Coastal Water Temperatures

Place Temperature

Nearby Weather Stations